Time;durP1;ratioP1;P1;durP2;ratioP2;P2;SDS_P1;SDS_P2;PMS_P1;PMS_P2;Temp;Humidity;BMP_temperature;BMP_pressure;BME280_temperature;BME280_humidity;BME280_pressure;Samples;Min_cycle;Max_cycle;Signal;HPM_P1;HPM_P2
2021/10/16 00:00:26;;;;;;;61.53;9.60;;;12.40;89.20;;;;;;5028384;28;20034;-61
2021/10/16 00:02:51;;;;;;;84.55;10.20;;;12.40;89.10;;;;;;5031214;28;20025;-61
2021/10/16 00:05:17;;;;;;;63.85;10.55;;;12.40;89.20;;;;;;5028032;28;20181;-61
2021/10/16 00:07:42;;;;;;;62.78;9.38;;;12.40;89.20;;;;;;5031397;28;20534;-61
2021/10/16 00:10:08;;;;;;;75.53;9.10;;;12.30;89.20;;;;;;5032314;28;20041;-62
2021/10/16 00:12:33;;;;;;;49.22;8.73;;;12.40;89.30;;;;;;5025708;28;20352;-61
2021/10/16 00:14:59;;;;;;;50.13;9.60;;;12.30;89.20;;;;;;5027598;28;20025;-61
2021/10/16 00:17:24;;;;;;;58.42;8.95;;;12.30;89.30;;;;;;5028441;28;20124;-61
2021/10/16 00:19:50;;;;;;;52.03;9.50;;;12.30;89.40;;;;;;5026220;28;20384;-61
2021/10/16 00:22:20;;;;;;;52.33;9.48;;;12.30;90.10;;;;;;5030259;28;20032;-61
2021/10/16 00:24:46;;;;;;;65.18;9.30;;;12.20;89.70;;;;;;5029770;28;20037;-61
2021/10/16 00:27:12;;;;;;;72.85;10.88;;;12.20;89.70;;;;;;5039895;28;20706;-61
2021/10/16 00:29:37;;;;;;;65.30;10.32;;;12.20;89.70;;;;;;5028167;28;20044;-61
2021/10/16 00:32:03;;;;;;;47.83;8.43;;;12.20;89.70;;;;;;5028435;28;20040;-61
2021/10/16 00:34:28;;;;;;;52.33;10.75;;;12.20;89.90;;;;;;5030620;28;20069;-61
2021/10/16 00:36:54;;;;;;;53.03;10.07;;;12.10;89.70;;;;;;5027478;28;20051;-61
2021/10/16 00:39:19;;;;;;;63.38;10.45;;;12.10;89.80;;;;;;5028103;28;20033;-61
2021/10/16 00:41:45;;;;;;;52.58;10.15;;;12.10;90.00;;;;;;5027873;28;20516;-61
2021/10/16 00:44:22;;;;;;;43.47;10.00;;;12.10;90.00;;;;;;5027183;28;20169;-61
2021/10/16 00:46:48;;;;;;;34.63;8.27;;;12.10;90.30;;;;;;5025614;28;20048;-61
2021/10/16 00:49:13;;;;;;;37.47;9.05;;;12.10;90.00;;;;;;5011384;28;20589;-61
2021/10/16 00:51:39;;;;;;;46.85;8.80;;;12.00;90.00;;;;;;5029646;28;20477;-61
2021/10/16 00:54:07;;;;;;;41.25;8.55;;;12.00;90.00;;;;;;5027561;28;20494;-61
2021/10/16 00:56:36;;;;;;;36.83;8.15;;;12.00;90.00;;;;;;5023898;28;20037;-61
2021/10/16 00:59:02;;;;;;;40.30;8.05;;;12.00;90.00;;;;;;5007625;28;20021;-61
2021/10/16 01:01:29;;;;;;;34.03;7.68;;;12.00;90.00;;;;;;5021653;28;20423;-61
2021/10/16 01:03:54;;;;;;;33.45;7.85;;;12.00;90.30;;;;;;4992215;28;20046;-62
2021/10/16 01:06:20;;;;;;;33.85;8.25;;;12.00;90.00;;;;;;5029180;28;20826;-61
2021/10/16 01:08:45;;;;;;;32.65;9.32;;;11.90;90.00;;;;;;5028222;28;20079;-61
2021/10/16 01:11:11;;;;;;;27.75;8.15;;;11.90;90.00;;;;;;5027495;28;20021;-61
2021/10/16 01:13:36;;;;;;;25.98;7.82;;;11.90;90.00;;;;;;5029562;28;20029;-61
2021/10/16 01:16:02;;;;;;;52.75;9.57;;;11.90;90.00;;;;;;5028802;28;20047;-61
2021/10/16 01:18:27;;;;;;;20.38;7.93;;;11.90;90.00;;;;;;5028792;28;20385;-61
2021/10/16 01:21:06;;;;;;;34.00;8.00;;;11.90;90.00;;;;;;5027061;28;20509;-61
2021/10/16 01:23:35;;;;;;;26.38;7.10;;;11.80;90.00;;;;;;5026670;28;20421;-61
2021/10/16 01:26:01;;;;;;;22.05;7.40;;;11.80;90.00;;;;;;5025758;28;20056;-61
2021/10/16 01:28:27;;;;;;;31.25;8.63;;;11.80;90.10;;;;;;5005607;28;20041;-60
2021/10/16 01:30:53;;;;;;;26.58;7.28;;;11.80;90.10;;;;;;5014370;28;20021;-61
2021/10/16 01:33:19;;;;;;;26.55;7.40;;;11.80;90.10;;;;;;5011023;28;20025;-61
2021/10/16 01:36:00;;;;;;;16.30;6.72;;;11.70;90.00;;;;;;5031339;28;20080;-61
2021/10/16 01:38:26;;;;;;;25.60;7.30;;;11.70;90.00;;;;;;5029127;28;20025;-61
2021/10/16 01:40:51;;;;;;;14.32;6.75;;;11.70;90.00;;;;;;5029043;28;20133;-61
2021/10/16 01:43:17;;;;;;;20.13;7.20;;;11.70;90.00;;;;;;5032494;28;20049;-61
2021/10/16 01:45:43;;;;;;;26.17;7.15;;;11.70;90.00;;;;;;5023913;28;20105;-61
2021/10/16 01:48:08;;;;;;;15.55;6.40;;;11.70;90.00;;;;;;5027730;28;20072;-61
2021/10/16 01:50:39;;;;;;;18.85;6.47;;;11.70;90.00;;;;;;5028276;28;20056;-61
2021/10/16 01:53:09;;;;;;;14.00;6.47;;;11.60;90.00;;;;;;5032575;28;20072;-61
2021/10/16 01:55:35;;;;;;;15.65;6.50;;;11.60;90.00;;;;;;5026335;28;20037;-61
2021/10/16 01:58:06;;;;;;;12.25;5.82;;;11.60;90.00;;;;;;5028095;28;20029;-61
2021/10/16 02:00:32;;;;;;;14.57;6.47;;;11.60;90.00;;;;;;5025101;28;20041;-61
2021/10/16 02:02:57;;;;;;;26.63;6.20;;;11.60;90.00;;;;;;5027404;28;20104;-61
2021/10/16 02:05:23;;;;;;;16.60;5.80;;;11.60;90.00;;;;;;5026916;28;20103;-61
2021/10/16 02:07:49;;;;;;;27.10;6.20;;;11.50;89.90;;;;;;5011234;28;20433;-61
2021/10/16 02:10:14;;;;;;;13.23;4.85;;;11.50;90.00;;;;;;5024330;28;20048;-61
2021/10/16 02:12:40;;;;;;;15.98;6.10;;;11.50;89.80;;;;;;5040041;28;20041;-61
2021/10/16 02:15:05;;;;;;;15.18;6.28;;;11.50;89.80;;;;;;5031730;28;20125;-61
2021/10/16 02:17:31;;;;;;;15.18;5.20;;;11.50;89.80;;;;;;5028917;28;20124;-61
2021/10/16 02:19:56;;;;;;;12.15;5.28;;;11.50;89.80;;;;;;5027006;28;20105;-60
2021/10/16 02:22:22;;;;;;;9.93;5.22;;;11.40;89.80;;;;;;5028131;28;20113;-60
2021/10/16 02:24:48;;;;;;;10.18;5.10;;;11.40;89.80;;;;;;5028110;28;20343;-61
2021/10/16 02:27:13;;;;;;;12.40;5.57;;;11.40;89.90;;;;;;5024029;28;20056;-62
2021/10/16 02:29:39;;;;;;;14.90;6.00;;;11.40;89.90;;;;;;5028962;28;20029;-62
2021/10/16 02:32:05;;;;;;;13.52;5.50;;;11.40;89.90;;;;;;5026554;28;20113;-63
2021/10/16 02:34:30;;;;;;;8.77;4.82;;;11.40;89.80;;;;;;5029984;28;20048;-62
2021/10/16 02:36:56;;;;;;;11.10;5.60;;;11.40;89.80;;;;;;5027254;28;20026;-62
2021/10/16 02:39:21;;;;;;;17.35;5.85;;;11.40;89.80;;;;;;5026911;28;20504;-62
2021/10/16 02:41:47;;;;;;;15.75;6.00;;;11.30;89.70;;;;;;5026416;28;20042;-62
2021/10/16 02:44:12;;;;;;;11.63;6.13;;;11.30;89.70;;;;;;5026580;28;20077;-61
2021/10/16 02:46:38;;;;;;;8.98;5.70;;;11.30;89.70;;;;;;5026174;28;20033;-62
2021/10/16 02:49:03;;;;;;;15.98;7.35;;;11.30;89.80;;;;;;5027529;28;20029;-61
2021/10/16 02:51:29;;;;;;;11.32;6.35;;;11.30;89.80;;;;;;5028111;28;20037;-62
2021/10/16 02:53:54;;;;;;;11.57;6.25;;;11.20;89.70;;;;;;5027186;28;20041;-62
2021/10/16 02:56:20;;;;;;;9.43;6.15;;;11.20;89.80;;;;;;5031773;28;20038;-62
2021/10/16 02:58:46;;;;;;;10.10;5.88;;;11.20;89.80;;;;;;5040946;28;20025;-62
2021/10/16 03:01:12;;;;;;;14.85;6.25;;;11.20;89.80;;;;;;5031608;28;20101;-61
2021/10/16 03:03:37;;;;;;;10.35;5.45;;;11.10;89.80;;;;;;5025448;28;20108;-62
2021/10/16 03:06:03;;;;;;;11.55;5.70;;;11.20;89.90;;;;;;5034888;28;20366;-62
2021/10/16 03:08:28;;;;;;;10.30;5.35;;;11.10;89.80;;;;;;5031840;28;20491;-62
2021/10/16 03:10:54;;;;;;;12.63;6.00;;;11.10;89.80;;;;;;5046708;28;20036;-62
2021/10/16 03:13:19;;;;;;;8.73;5.55;;;11.10;89.90;;;;;;5036348;28;20042;-62
2021/10/16 03:15:45;;;;;;;9.48;5.70;;;11.10;89.90;;;;;;5031371;28;20037;-62
2021/10/16 03:18:10;;;;;;;9.70;6.00;;;11.10;89.90;;;;;;5034283;28;20035;-61
2021/10/16 03:20:36;;;;;;;11.98;6.10;;;11.00;89.80;;;;;;5029954;28;20063;-62
2021/10/16 03:23:01;;;;;;;9.70;6.05;;;11.00;89.80;;;;;;5032082;28;20496;-62
2021/10/16 03:25:27;;;;;;;9.38;5.40;;;11.00;89.90;;;;;;5021886;28;20029;-62
2021/10/16 03:27:52;;;;;;;8.30;6.10;;;11.00;90.00;;;;;;5013240;28;20021;-62
2021/10/16 03:30:18;;;;;;;11.18;6.13;;;11.00;90.00;;;;;;5027099;28;20032;-62
2021/10/16 03:32:43;;;;;;;8.55;5.13;;;10.90;90.00;;;;;;5027588;28;20053;-61
2021/10/16 03:35:09;;;;;;;8.48;5.88;;;10.90;90.10;;;;;;5026578;28;20041;-62
2021/10/16 03:37:34;;;;;;;7.95;5.82;;;10.90;90.10;;;;;;5030891;28;20026;-62
2021/10/16 03:40:00;;;;;;;8.10;5.13;;;10.90;90.10;;;;;;5013567;28;20354;-62
2021/10/16 03:42:25;;;;;;;9.07;5.55;;;10.90;90.00;;;;;;5031734;28;20103;-61
2021/10/16 03:44:51;;;;;;;10.60;6.25;;;10.90;90.10;;;;;;5028611;28;20099;-62
2021/10/16 03:47:16;;;;;;;9.27;5.90;;;10.90;90.00;;;;;;5030278;28;20033;-61
2021/10/16 03:49:42;;;;;;;8.00;5.55;;;10.90;90.00;;;;;;5030190;28;20033;-62
2021/10/16 03:52:08;;;;;;;8.43;5.63;;;10.90;90.00;;;;;;5026723;28;20048;-62
2021/10/16 03:54:34;;;;;;;8.18;6.00;;;10.90;90.00;;;;;;5034103;28;20488;-61
2021/10/16 03:56:59;;;;;;;11.38;6.93;;;10.80;90.00;;;;;;5028601;28;20028;-62
2021/10/16 03:59:24;;;;;;;10.43;6.57;;;10.80;90.00;;;;;;5027412;28;20401;-62
2021/10/16 04:01:50;;;;;;;13.98;6.80;;;10.80;90.00;;;;;;5033651;28;20022;-62
2021/10/16 04:04:16;;;;;;;12.10;7.03;;;10.80;90.00;;;;;;5032942;28;20087;-62
2021/10/16 04:06:41;;;;;;;11.10;7.07;;;10.80;90.00;;;;;;5030059;28;20039;-62
2021/10/16 04:09:07;;;;;;;9.43;6.47;;;10.70;90.10;;;;;;5037626;28;20037;-61
2021/10/16 04:11:32;;;;;;;8.63;6.25;;;10.70;90.10;;;;;;5030203;28;20038;-62
2021/10/16 04:13:57;;;;;;;8.52;6.50;;;10.70;90.10;;;;;;5032133;28;20033;-62
2021/10/16 04:16:23;;;;;;;12.05;6.70;;;10.70;90.10;;;;;;5030524;28;20037;-62
2021/10/16 04:18:48;;;;;;;8.85;6.43;;;10.70;90.10;;;;;;5015696;28;20024;-62
2021/10/16 04:21:14;;;;;;;10.45;6.03;;;10.70;90.10;;;;;;5029125;28;20488;-62
2021/10/16 04:23:39;;;;;;;8.05;5.70;;;10.70;90.10;;;;;;5011260;28;20061;-62
2021/10/16 04:26:05;;;;;;;7.68;5.55;;;10.70;90.10;;;;;;5026415;28;20150;-62
2021/10/16 04:28:30;;;;;;;9.85;6.45;;;10.60;90.10;;;;;;5031438;28;20721;-62
2021/10/16 04:30:56;;;;;;;8.65;5.97;;;10.60;90.10;;;;;;5031195;28;20071;-62
2021/10/16 04:33:22;;;;;;;7.75;5.82;;;10.60;90.10;;;;;;5031610;28;20029;-61
2021/10/16 04:35:47;;;;;;;9.18;6.30;;;10.60;90.10;;;;;;5031216;28;20049;-61
2021/10/16 04:38:14;;;;;;;7.53;5.70;;;10.60;90.10;;;;;;5030295;28;20041;-62
2021/10/16 04:40:40;;;;;;;8.90;5.57;;;10.60;90.10;;;;;;5030533;28;20025;-62
2021/10/16 04:43:07;;;;;;;9.25;5.93;;;10.60;90.10;;;;;;5031357;28;20037;-62
2021/10/16 04:45:33;;;;;;;6.43;5.63;;;10.60;90.20;;;;;;5013782;28;20017;-62
2021/10/16 04:47:59;;;;;;;8.32;5.93;;;10.50;90.20;;;;;;5031320;28;20048;-62
2021/10/16 04:50:25;;;;;;;6.72;5.45;;;10.50;90.20;;;;;;5029395;28;20035;-61
2021/10/16 04:52:50;;;;;;;8.80;6.13;;;10.50;90.20;;;;;;5029872;28;20104;-61
2021/10/16 04:55:16;;;;;;;8.80;5.97;;;10.50;90.20;;;;;;5027681;28;20038;-62
2021/10/16 04:57:41;;;;;;;10.65;6.18;;;10.50;90.20;;;;;;5026654;28;20030;-62
2021/10/16 05:00:07;;;;;;;9.15;5.65;;;10.50;90.30;;;;;;5012875;28;20024;-62
2021/10/16 05:02:33;;;;;;;9.02;5.40;;;10.40;90.20;;;;;;5030240;28;20033;-62
2021/10/16 05:04:59;;;;;;;8.35;5.32;;;10.40;90.30;;;;;;5009497;28;20606;-61
2021/10/16 05:07:24;;;;;;;7.75;5.82;;;10.40;90.30;;;;;;5027894;28;20128;-62
2021/10/16 05:09:50;;;;;;;6.95;5.22;;;10.40;90.40;;;;;;5022167;28;20113;-62
2021/10/16 05:12:16;;;;;;;6.30;5.07;;;10.40;90.40;;;;;;5030234;28;20119;-61
2021/10/16 05:14:42;;;;;;;7.22;5.32;;;10.30;90.40;;;;;;5029053;28;20076;-62
2021/10/16 05:17:08;;;;;;;7.90;5.68;;;10.30;90.50;;;;;;5027645;28;20071;-62
2021/10/16 05:19:33;;;;;;;9.02;5.00;;;10.30;90.50;;;;;;5030783;28;20048;-62
2021/10/16 05:21:59;;;;;;;8.50;6.28;;;10.30;90.50;;;;;;5027798;28;20060;-62
2021/10/16 05:24:24;;;;;;;8.18;5.95;;;10.30;90.50;;;;;;5030575;28;20034;-62
2021/10/16 05:26:50;;;;;;;8.65;5.80;;;10.30;90.50;;;;;;5027540;28;20037;-62
2021/10/16 05:29:15;;;;;;;7.10;5.50;;;10.30;90.50;;;;;;5038518;28;20034;-62
2021/10/16 05:31:41;;;;;;;6.32;5.20;;;10.30;90.50;;;;;;5018022;28;20071;-61
2021/10/16 05:34:06;;;;;;;32.65;8.20;;;10.20;90.50;;;;;;5029927;28;20025;-62
2021/10/16 05:36:32;;;;;;;19.98;7.18;;;10.20;90.60;;;;;;5029966;28;20041;-62
2021/10/16 05:38:57;;;;;;;17.90;7.13;;;10.20;90.60;;;;;;5030692;28;20032;-62
2021/10/16 05:41:23;;;;;;;14.00;6.93;;;10.20;90.60;;;;;;5028404;28;20389;-62
2021/10/16 05:43:48;;;;;;;16.77;7.35;;;10.20;90.60;;;;;;5027838;28;20064;-62
2021/10/16 05:46:14;;;;;;;23.05;6.63;;;10.20;90.60;;;;;;5028394;28;20037;-62
2021/10/16 05:48:39;;;;;;;19.15;6.85;;;10.20;90.70;;;;;;5028521;28;20029;-62
2021/10/16 05:51:05;;;;;;;18.40;6.57;;;10.20;90.70;;;;;;5038161;28;20026;-61
2021/10/16 05:53:31;;;;;;;18.35;6.25;;;10.20;90.70;;;;;;5027269;28;20032;-62
2021/10/16 05:55:56;;;;;;;26.00;7.03;;;10.20;90.70;;;;;;5025261;28;20037;-61
2021/10/16 05:58:22;;;;;;;20.83;6.97;;;10.20;90.70;;;;;;5027589;28;20132;-62
2021/10/16 06:00:47;;;;;;;19.58;6.53;;;10.10;90.70;;;;;;5037230;28;20055;-62
2021/10/16 06:03:13;;;;;;;18.58;6.55;;;10.10;90.70;;;;;;5030108;28;20499;-62
2021/10/16 06:05:38;;;;;;;17.02;6.72;;;10.10;90.60;;;;;;5020266;28;20083;-62
2021/10/16 06:08:04;;;;;;;16.83;6.43;;;10.10;90.70;;;;;;5027317;28;20158;-62
2021/10/16 06:10:30;;;;;;;16.58;6.97;;;10.10;90.80;;;;;;5021105;28;20049;-61
2021/10/16 06:12:55;;;;;;;16.85;6.20;;;10.10;90.80;;;;;;5038004;28;20021;-62
2021/10/16 06:15:21;;;;;;;21.30;6.63;;;10.10;91.10;;;;;;5021996;28;20020;-62
2021/10/16 06:17:46;;;;;;;16.52;6.78;;;10.10;90.80;;;;;;5021071;28;20037;-62
2021/10/16 06:20:12;;;;;;;16.88;6.75;;;10.10;90.90;;;;;;5031726;28;20100;-62
2021/10/16 06:22:37;;;;;;;17.17;6.88;;;10.10;90.90;;;;;;5038263;28;20112;-62
2021/10/16 06:25:03;;;;;;;13.88;6.10;;;10.10;90.90;;;;;;5038995;28;20055;-63
2021/10/16 06:27:29;;;;;;;14.45;6.60;;;10.10;90.90;;;;;;5038068;28;20108;-62
2021/10/16 06:29:54;;;;;;;21.45;6.60;;;10.10;90.90;;;;;;5031072;28;20049;-61
2021/10/16 06:32:20;;;;;;;17.38;6.28;;;10.10;90.90;;;;;;5027953;28;20065;-62
2021/10/16 06:34:45;;;;;;;10.20;6.80;;;10.10;90.90;;;;;;5026752;28;20465;-62
2021/10/16 06:37:11;;;;;;;15.98;6.35;;;10.10;90.90;;;;;;5038508;28;20022;-62
2021/10/16 06:39:36;;;;;;;12.25;6.88;;;10.00;90.90;;;;;;5015790;28;20033;-62
2021/10/16 06:42:02;;;;;;;15.60;6.88;;;10.00;91.00;;;;;;5039263;28;20048;-62
2021/10/16 06:44:28;;;;;;;12.88;6.43;;;10.00;91.00;;;;;;5033260;28;20041;-63
2021/10/16 06:46:53;;;;;;;15.02;6.30;;;10.00;91.00;;;;;;5024763;28;20041;-61
2021/10/16 06:49:19;;;;;;;17.15;6.30;;;10.00;91.10;;;;;;5028336;28;20050;-62
2021/10/16 06:51:45;;;;;;;22.13;7.05;;;10.00;91.10;;;;;;5026583;28;20037;-62
2021/10/16 06:54:12;;;;;;;11.88;6.50;;;10.00;91.10;;;;;;5024953;28;20283;-62
2021/10/16 06:56:37;;;;;;;18.27;6.93;;;10.00;91.10;;;;;;5028277;28;20022;-62
2021/10/16 06:59:03;;;;;;;14.55;7.80;;;10.00;91.20;;;;;;5027673;28;20029;-62
2021/10/16 07:01:28;;;;;;;14.80;5.53;;;9.90;91.20;;;;;;5027492;28;20037;-62
2021/10/16 07:03:54;;;;;;;12.27;6.35;;;10.00;91.20;;;;;;5027861;28;20033;-62
2021/10/16 07:06:20;;;;;;;18.33;6.78;;;9.90;91.20;;;;;;5025296;28;20024;-62
2021/10/16 07:08:45;;;;;;;14.10;6.45;;;10.00;91.20;;;;;;5024071;28;20021;-62
2021/10/16 07:11:11;;;;;;;14.32;6.43;;;10.00;91.20;;;;;;5025006;28;20176;-62
2021/10/16 07:13:36;;;;;;;17.27;7.30;;;10.00;91.20;;;;;;5027269;28;20061;-62
2021/10/16 07:16:02;;;;;;;12.95;6.93;;;9.90;91.30;;;;;;5028985;28;20548;-62
2021/10/16 07:18:28;;;;;;;13.98;6.32;;;9.90;91.30;;;;;;5026123;28;20037;-62
2021/10/16 07:20:53;;;;;;;17.27;6.82;;;9.90;91.40;;;;;;5041732;28;20125;-62
2021/10/16 07:23:26;;;;;;;14.30;7.32;;;9.90;91.40;;;;;;5017957;28;20095;-61
2021/10/16 07:25:52;;;;;;;10.70;6.50;;;9.90;91.40;;;;;;5033421;28;20025;-62
2021/10/16 07:28:17;;;;;;;12.13;7.10;;;9.90;91.40;;;;;;5026603;28;20377;-62
2021/10/16 07:30:43;;;;;;;10.10;6.45;;;9.90;91.50;;;;;;5027455;28;20017;-62
2021/10/16 07:33:12;;;;;;;11.38;6.43;;;9.90;91.50;;;;;;5036377;28;20037;-62
2021/10/16 07:35:37;;;;;;;8.60;5.97;;;9.90;91.60;;;;;;5024179;28;20080;-62
2021/10/16 07:38:03;;;;;;;7.78;5.85;;;9.90;91.60;;;;;;5005483;28;20433;-62
2021/10/16 07:40:28;;;;;;;9.85;6.97;;;9.90;91.60;;;;;;5022085;28;20136;-61
2021/10/16 07:42:54;;;;;;;11.68;7.07;;;9.90;91.70;;;;;;5026602;28;20509;-62
2021/10/16 07:45:19;;;;;;;10.73;6.55;;;9.90;91.70;;;;;;5030769;28;20041;-62
2021/10/16 07:47:45;;;;;;;10.73;7.00;;;9.90;91.70;;;;;;5033007;28;20025;-62
2021/10/16 07:50:10;;;;;;;12.05;6.70;;;9.90;91.80;;;;;;5031517;28;20421;-62
2021/10/16 07:52:37;;;;;;;8.95;6.60;;;9.90;91.80;;;;;;5027458;28;20033;-61
2021/10/16 07:55:03;;;;;;;12.23;7.53;;;9.90;91.80;;;;;;5025315;28;20370;-62
2021/10/16 07:57:29;;;;;;;9.60;6.70;;;9.90;92.10;;;;;;5032038;28;20439;-62
2021/10/16 07:59:54;;;;;;;7.55;6.45;;;9.90;91.80;;;;;;5029477;28;20037;-63
2021/10/16 08:02:20;;;;;;;8.23;6.28;;;9.90;91.80;;;;;;5030209;28;20041;-62
2021/10/16 08:04:45;;;;;;;10.00;7.20;;;9.90;91.90;;;;;;5029560;28;20444;-63
2021/10/16 08:07:10;;;;;;;12.50;7.32;;;9.90;91.90;;;;;;5028438;28;20374;-61
2021/10/16 08:09:36;;;;;;;18.52;7.72;;;9.90;92.00;;;;;;5028951;28;20045;-62
2021/10/16 08:12:02;;;;;;;20.45;8.88;;;10.00;92.00;;;;;;5028894;28;20032;-62
2021/10/16 08:14:27;;;;;;;15.95;8.05;;;10.00;92.00;;;;;;5035228;28;20523;-61
2021/10/16 08:16:53;;;;;;;24.85;8.50;;;10.00;92.00;;;;;;5032004;28;20030;-61
2021/10/16 08:19:18;;;;;;;15.68;7.32;;;10.00;92.10;;;;;;5030767;28;20041;-62
2021/10/16 08:21:44;;;;;;;10.98;7.40;;;10.00;92.10;;;;;;5031169;28;20812;-61
2021/10/16 08:24:09;;;;;;;15.55;7.38;;;10.00;92.10;;;;;;5032095;28;20529;-62
2021/10/16 08:26:35;;;;;;;13.40;7.85;;;10.00;92.10;;;;;;5011354;28;20465;-61
2021/10/16 08:29:00;;;;;;;20.70;8.63;;;10.00;92.10;;;;;;5030675;28;20025;-62
2021/10/16 08:31:26;;;;;;;25.88;9.10;;;10.10;92.10;;;;;;5028260;28;20524;-62
2021/10/16 08:33:53;;;;;;;49.85;10.40;;;10.10;92.10;;;;;;5029608;28;20366;-61
2021/10/16 08:36:18;;;;;;;29.73;10.88;;;10.10;92.10;;;;;;5033335;28;20048;-62
2021/10/16 08:38:44;;;;;;;30.40;9.63;;;10.10;92.10;;;;;;5029909;28;20037;-62
2021/10/16 08:41:10;;;;;;;36.30;10.90;;;10.20;92.20;;;;;;5031358;28;20508;-62
2021/10/16 08:43:36;;;;;;;32.60;11.32;;;10.20;92.20;;;;;;5024877;28;20053;-62
2021/10/16 08:46:02;;;;;;;34.28;10.57;;;10.20;92.20;;;;;;5032971;28;20033;-62
2021/10/16 08:48:32;;;;;;;21.33;8.95;;;10.20;92.10;;;;;;5029797;28;20388;-62
2021/10/16 08:50:57;;;;;;;30.05;11.15;;;10.30;92.00;;;;;;5016202;28;20057;-61
2021/10/16 08:53:23;;;;;;;34.13;10.57;;;10.30;92.00;;;;;;5012141;28;20057;-61
2021/10/16 08:55:52;;;;;;;26.38;10.82;;;10.30;92.10;;;;;;5029210;28;20030;-61
2021/10/16 08:58:18;;;;;;;29.98;11.73;;;10.30;92.20;;;;;;5028229;28;20056;-62
2021/10/16 09:00:52;;;;;;;47.80;12.32;;;10.30;92.20;;;;;;5027741;28;20069;-61
2021/10/16 09:03:25;;;;;;;55.58;13.50;;;10.30;92.30;;;;;;5027698;28;20052;-62
2021/10/16 09:06:03;;;;;;;47.35;14.13;;;10.30;92.30;;;;;;5028728;28;20416;-62
2021/10/16 09:08:30;;;;;;;71.55;16.80;;;10.40;92.40;;;;;;5022735;28;20029;-62
2021/10/16 09:11:12;;;;;;;66.53;14.73;;;10.40;92.40;;;;;;5010954;28;20056;-61
2021/10/16 09:13:48;;;;;;;45.15;15.48;;;10.40;92.40;;;;;;5028438;28;20112;-62
2021/10/16 09:16:28;;;;;;;65.30;16.85;;;10.40;92.50;;;;;;5028172;28;20054;-64
2021/10/16 09:18:57;;;;;;;79.07;17.23;;;10.50;92.80;;;;;;5031026;28;20029;-62
2021/10/16 09:21:24;;;;;;;91.50;18.17;;;10.50;92.80;;;;;;5029344;28;20021;-61
2021/10/16 09:24:00;;;;;;;98.95;20.77;;;10.60;92.70;;;;;;5030078;28;20342;-61
2021/10/16 09:26:25;;;;;;;82.72;22.35;;;10.60;93.10;;;;;;5027531;28;20514;-60
2021/10/16 09:28:58;;;;;;;70.03;19.77;;;10.60;93.20;;;;;;5027616;28;20064;-61
2021/10/16 09:31:30;;;;;;;120.93;21.75;;;10.70;93.30;;;;;;5015888;28;20021;-60
2021/10/16 09:33:55;;;;;;;88.35;23.17;;;10.60;93.20;;;;;;4982937;28;20096;-60
2021/10/16 09:36:24;;;;;;;85.05;21.35;;;10.70;93.10;;;;;;5027785;28;20044;-61
2021/10/16 09:38:50;;;;;;;84.10;21.38;;;10.80;93.20;;;;;;5034931;28;20103;-60
2021/10/16 09:41:38;;;;;;;72.32;21.60;;;10.90;93.20;;;;;;5011778;28;20029;-61
2021/10/16 09:44:20;;;;;;;82.13;21.52;;;10.80;93.20;;;;;;5027115;28;20033;-61
2021/10/16 09:47:14;;;;;;;87.57;22.75;;;10.90;93.30;;;;;;5041355;28;20017;-60
2021/10/16 09:49:43;;;;;;;74.25;20.35;;;10.90;93.30;;;;;;5026412;28;20017;-61
2021/10/16 09:52:16;;;;;;;107.18;24.48;;;11.00;93.30;;;;;;5028209;28;20099;-61
2021/10/16 09:54:43;;;;;;;100.30;24.42;;;11.10;93.20;;;;;;5025761;28;20036;-60
2021/10/16 09:57:10;;;;;;;95.78;24.50;;;11.00;93.30;;;;;;5027465;28;20039;-61
2021/10/16 09:59:37;;;;;;;104.72;24.00;;;11.10;93.40;;;;;;5026054;28;20036;-60
2021/10/16 10:02:03;;;;;;;99.35;25.02;;;11.10;93.50;;;;;;5026387;28;20017;-61
2021/10/16 10:04:37;;;;;;;93.80;23.33;;;11.20;93.50;;;;;;5011559;28;20041;-60
2021/10/16 10:07:03;;;;;;;132.55;27.42;;;11.20;93.40;;;;;;5011821;28;20126;-61
2021/10/16 10:09:29;;;;;;;186.05;29.00;;;11.30;93.20;;;;;;5028289;28;20064;-60
2021/10/16 10:11:55;;;;;;;135.30;27.83;;;11.30;93.60;;;;;;5028128;28;20041;-61
2021/10/16 10:14:20;;;;;;;111.88;26.27;;;11.20;93.40;;;;;;5024566;28;20045;-61
2021/10/16 10:16:47;;;;;;;90.80;25.38;;;11.40;93.40;;;;;;5025531;28;20519;-61
2021/10/16 10:19:13;;;;;;;112.78;24.92;;;11.40;93.30;;;;;;5025632;28;20665;-60
2021/10/16 10:21:38;;;;;;;98.43;24.95;;;11.50;93.40;;;;;;5019295;28;20155;-61
2021/10/16 10:24:06;;;;;;;77.53;24.45;;;11.50;93.30;;;;;;5021119;28;20528;-60
2021/10/16 10:26:32;;;;;;;141.18;29.00;;;11.50;93.20;;;;;;5023429;28;20034;-61
2021/10/16 10:29:07;;;;;;;109.07;28.08;;;11.60;93.40;;;;;;5017562;28;20686;-61
2021/10/16 10:31:45;;;;;;;99.43;25.80;;;11.60;93.30;;;;;;5020836;28;20049;-61
2021/10/16 10:34:15;;;;;;;101.13;27.30;;;11.70;93.30;;;;;;5023701;28;20106;-60
2021/10/16 10:36:59;;;;;;;95.82;25.02;;;11.70;93.20;;;;;;5021561;28;20068;-61
2021/10/16 10:39:33;;;;;;;110.20;26.90;;;11.80;93.30;;;;;;5022411;28;20056;-61
2021/10/16 10:42:03;;;;;;;114.55;26.83;;;11.80;93.20;;;;;;5026333;28;20068;-61
2021/10/16 10:44:44;;;;;;;120.88;27.30;;;11.90;93.10;;;;;;5023034;28;20136;-60
2021/10/16 10:47:25;;;;;;;98.68;24.38;;;11.90;93.10;;;;;;5027034;28;20029;-62
2021/10/16 10:49:51;;;;;;;129.38;28.92;;;11.90;93.00;;;;;;5023983;28;20045;-61
2021/10/16 10:52:17;;;;;;;105.55;28.63;;;11.90;93.10;;;;;;5034848;28;20901;-60
2021/10/16 10:55:07;;;;;;;113.63;24.42;;;12.00;93.10;;;;;;5011266;28;20030;-61
2021/10/16 10:57:45;;;;;;;127.20;26.13;;;12.00;93.00;;;;;;5019111;28;20025;-61
2021/10/16 11:00:14;;;;;;;113.15;25.33;;;12.10;93.00;;;;;;5025908;28;20025;-61
2021/10/16 11:02:40;;;;;;;118.05;26.50;;;12.10;93.10;;;;;;5020680;28;20065;-61
2021/10/16 11:08:07;;;;;;;104.43;26.52;;;12.10;93.00;;;;;;5017580;28;20026;-61
2021/10/16 11:10:33;;;;;;;136.27;28.33;;;12.20;93.00;;;;;;5026848;28;20037;-63
2021/10/16 11:12:58;;;;;;;154.45;29.02;;;12.20;92.90;;;;;;5026330;28;20025;-61
2021/10/16 11:15:24;;;;;;;163.00;28.63;;;12.20;92.90;;;;;;5026233;28;20061;-61
2021/10/16 11:17:49;;;;;;;135.18;30.35;;;12.30;92.90;;;;;;5026320;28;20100;-61
2021/10/16 11:20:19;;;;;;;161.50;27.52;;;12.30;92.90;;;;;;5027988;28;20045;-62
2021/10/16 11:22:52;;;;;;;148.10;27.85;;;12.30;92.90;;;;;;5022623;28;20606;-61
2021/10/16 11:25:23;;;;;;;134.88;26.60;;;12.40;92.80;;;;;;5024022;28;20033;-62
2021/10/16 11:28:08;;;;;;;142.00;29.65;;;12.40;92.80;;;;;;5031204;28;20374;-61
2021/10/16 11:30:35;;;;;;;140.43;28.10;;;12.40;92.80;;;;;;5025739;28;20030;-61
2021/10/16 11:33:19;;;;;;;172.60;29.42;;;12.40;92.70;;;;;;5032212;28;20587;-61
2021/10/16 11:35:46;;;;;;;136.75;28.52;;;12.50;92.60;;;;;;5020270;28;20091;-61
2021/10/16 11:38:13;;;;;;;131.65;27.00;;;12.50;92.70;;;;;;5026584;28;20160;-61
2021/10/16 11:40:39;;;;;;;137.55;25.55;;;12.50;92.60;;;;;;5031048;28;20033;-61
2021/10/16 11:43:09;;;;;;;142.38;27.45;;;12.60;92.60;;;;;;5031051;28;20053;-61
2021/10/16 11:45:36;;;;;;;132.55;26.95;;;12.60;92.50;;;;;;5017833;28;20034;-60
2021/10/16 11:48:06;;;;;;;132.88;26.02;;;12.60;92.70;;;;;;5029167;28;20029;-61
2021/10/16 11:50:40;;;;;;;122.00;24.88;;;12.60;92.40;;;;;;5011149;28;20048;-61
2021/10/16 11:53:16;;;;;;;136.10;27.65;;;12.70;92.40;;;;;;5032653;28;20064;-60
2021/10/16 11:55:43;;;;;;;156.45;29.27;;;12.70;92.40;;;;;;5020935;28;20120;-62
2021/10/16 11:58:13;;;;;;;136.82;26.98;;;12.70;92.40;;;;;;5031180;28;20029;-61
2021/10/16 12:00:39;;;;;;;126.35;25.80;;;12.70;92.40;;;;;;5006083;28;20548;-61
2021/10/16 12:03:11;;;;;;;164.00;29.02;;;12.80;92.40;;;;;;5030913;28;20542;-61
2021/10/16 12:05:36;;;;;;;149.63;28.80;;;12.80;92.30;;;;;;5016257;28;20033;-61
2021/10/16 12:08:16;;;;;;;162.52;27.58;;;12.90;92.30;;;;;;5030955;28;20025;-61
2021/10/16 12:10:49;;;;;;;173.77;29.17;;;12.90;92.30;;;;;;5028307;28;20470;-61
2021/10/16 12:13:22;;;;;;;130.90;27.50;;;13.00;92.20;;;;;;5023879;28;20481;-60
2021/10/16 12:15:50;;;;;;;131.05;27.20;;;13.00;92.20;;;;;;4995754;28;20338;-60
2021/10/16 12:18:34;;;;;;;164.88;27.02;;;13.10;92.10;;;;;;5030395;28;20061;-61
2021/10/16 12:21:01;;;;;;;123.22;25.83;;;13.10;92.00;;;;;;5012807;28;20048;-60
2021/10/16 12:23:47;;;;;;;164.90;28.48;;;13.10;92.10;;;;;;5032630;28;20116;-59
2021/10/16 12:26:32;;;;;;;148.60;29.63;;;13.10;92.10;;;;;;5027335;28;20052;-61
2021/10/16 12:28:59;;;;;;;136.27;25.42;;;13.20;92.10;;;;;;5022966;28;20120;-61
2021/10/16 12:31:25;;;;;;;159.20;29.15;;;13.20;92.10;;;;;;5026507;28;20044;-60
2021/10/16 12:34:05;;;;;;;191.70;30.95;;;13.30;92.20;;;;;;5034712;28;20450;-59
2021/10/16 12:36:42;;;;;;;185.23;30.35;;;13.30;92.10;;;;;;5015287;28;20104;-60